Airborne Airpark
KILN : now visible

Airfield :











YOU CAN JOIN US ON...

 
LOGIN :

Register | Disclaimer

   EN    FR    IT 

 









Legend :    VFR   Marginal VFR   IFR   Intensive IFR   Very Intensive IFR
Visi :
Ceiling :
>= 8 km
>= 3000ft
5 to 8 km
1000 to 3000 ft
1500m to 5 km
500 to 1000 ft
800 to 1500m
200 to 500 ft
< 800m
< 200 ft
Symbols :   Thunderstorms  Fog  Heavy snow  Heavy precipitations  Wind > 20 kt







- Airport Elevation : 1077 ft


KILN - Airborne Airpark

CURRENT METAR :
  • 211354Z AUTO 27004KT 10SM OVC012 07/03 A3006 RMK AO2 SLP196 T00670033

EXPIRED METARs :
  • 211254Z AUTO 27007KT 10SM OVC012 06/03 A3005 RMK AO2 SLP190 T00610028 $
  • 211154Z AUTO 25004KT 10SM OVC014 06/03 A3002 RMK AO2 SLP180 70010 T00560028 10056 20050 53026 $

TAF KILN
Valid from the 21 at 12:00 until the 22 at 12:00 UTC


211120Z 2112/2212 26003KT P6SM BKN012
FM211500 26004KT P6SM BKN023
FM211900 00000KT P6SM BKN045
FM212000 31004KT P6SM SCT050
FM220000 12003KT P6SM SCT150
FM221000 17003KT 3SM BR SCT120
KZID FIR / North America



MET'MAP, your aeronautical weather chart ! - Copyright ORBIFLY December 2007 - Disclaimer

ORBIFLY MET'MAP TEAM :

Programming & Development : Alexandra Zaïnal
Concept & Development : Baudouin d'Aumeries
Co-Development & Prog : Marc-Olivier Méhu
Technical & hardware support : Manuel Goepfert

Contact : metmap@orbifly.com




SOURCES & CREDITS :

   NOAA       Earth
Advisory